createdAt,value
2022-10-29T00:00:30.383Z,100950.00
2022-10-29T00:02:56.943Z,100939.00
2022-10-29T00:05:24.501Z,100952.00
2022-10-29T00:07:50.985Z,100950.00
2022-10-29T00:10:17.473Z,100949.00
2022-10-29T00:12:43.933Z,100956.00
2022-10-29T00:15:10.802Z,100964.00
2022-10-29T00:17:37.310Z,100966.00
2022-10-29T00:20:04.230Z,100970.00
2022-10-29T00:22:30.772Z,100968.00
2022-10-29T00:24:57.387Z,100961.00
2022-10-29T00:27:23.893Z,100968.00
2022-10-29T00:29:50.594Z,100977.00
2022-10-29T00:32:17.116Z,100969.00
2022-10-29T00:34:43.846Z,100977.00
2022-10-29T00:37:10.320Z,100968.00
2022-10-29T00:39:36.799Z,100983.00
2022-10-29T00:42:04.727Z,100984.00
2022-10-29T00:44:35.464Z,100992.00
2022-10-29T00:47:17.869Z,100984.00
2022-10-29T00:49:47.474Z,100993.00
2022-10-29T00:52:15.228Z,101003.00
2022-10-29T00:54:43.439Z,100996.00
2022-10-29T00:57:13.146Z,101008.00
2022-10-29T00:59:40.637Z,101008.00
2022-10-29T01:02:08.329Z,101017.00
2022-10-29T01:04:35.239Z,101008.00
2022-10-29T01:07:02.057Z,101015.00
2022-10-29T01:09:28.503Z,101013.00
2022-10-29T01:12:11.631Z,101003.00
2022-10-29T01:15:07.996Z,101007.00
2022-10-29T01:18:03.501Z,101001.00
2022-10-29T01:20:53.129Z,101004.00
2022-10-29T01:23:22.508Z,101002.00
2022-10-29T01:25:58.395Z,100995.00
2022-10-29T01:28:41.981Z,101010.00
2022-10-29T01:31:25.389Z,101007.00
2022-10-29T01:34:33.171Z,101012.00
2022-10-29T01:37:37.438Z,101006.00
2022-10-29T01:40:12.515Z,101016.00
2022-10-29T01:42:41.037Z,101003.00
2022-10-29T01:45:17.076Z,101012.00
2022-10-29T01:48:07.364Z,100999.00
2022-10-29T01:50:34.250Z,101003.00
2022-10-29T01:53:00.982Z,100992.00
2022-10-29T01:55:35.276Z,101003.00
2022-10-29T01:58:03.714Z,101017.00
2022-10-29T02:01:09.009Z,101010.00
2022-10-29T02:03:58.990Z,101024.00
2022-10-29T02:06:40.384Z,101027.00
2022-10-29T02:09:16.589Z,101027.00
2022-10-29T02:11:48.343Z,101023.00
2022-10-29T02:14:24.302Z,101020.00
2022-10-29T02:16:51.555Z,101026.00
2022-10-29T02:19:18.234Z,101024.00
2022-10-29T02:21:45.132Z,101022.00
2022-10-29T02:24:11.955Z,101026.00
2022-10-29T02:26:38.439Z,101032.00
2022-10-29T02:29:04.937Z,101037.00
2022-10-29T02:31:31.421Z,101036.00
2022-10-29T02:33:57.898Z,101032.00
2022-10-29T02:36:24.410Z,101044.00
2022-10-29T02:38:51.977Z,101051.00
2022-10-29T02:41:18.425Z,101047.00
2022-10-29T02:43:45.084Z,101051.00
2022-10-29T02:46:16.130Z,101061.00
2022-10-29T02:48:43.054Z,101067.00
2022-10-29T02:51:09.867Z,101065.00
2022-10-29T02:53:36.822Z,101077.00
2022-10-29T02:56:04.345Z,101070.00
2022-10-29T02:58:30.842Z,101062.00
2022-10-29T03:00:57.368Z,101061.00
2022-10-29T03:03:24.573Z,101074.00
2022-10-29T03:05:51.386Z,101073.00
2022-10-29T03:08:18.453Z,101070.00
2022-10-29T03:10:44.968Z,101071.00
2022-10-29T03:13:11.961Z,101066.00
2022-10-29T03:15:38.571Z,101064.00
2022-10-29T03:18:05.294Z,101055.00
2022-10-29T03:20:31.774Z,101060.00
2022-10-29T03:22:58.280Z,101067.00
2022-10-29T03:25:24.748Z,101056.00
2022-10-29T03:27:52.248Z,101056.00
2022-10-29T03:30:18.929Z,101058.00
2022-10-29T03:32:46.872Z,101046.00
2022-10-29T03:35:14.986Z,101049.00
2022-10-29T03:37:41.931Z,101062.00
2022-10-29T03:40:09.060Z,101050.00
2022-10-29T03:42:35.624Z,101063.00
2022-10-29T03:45:02.368Z,101059.00
2022-10-29T03:47:28.985Z,101054.00
2022-10-29T03:49:55.752Z,101060.00
2022-10-29T03:52:22.285Z,101054.00
2022-10-29T03:54:48.838Z,101054.00
2022-10-29T03:57:15.345Z,101057.00
2022-10-29T03:59:51.537Z,101066.00
2022-10-29T04:02:19.357Z,101073.00
2022-10-29T04:04:46.005Z,101074.00
2022-10-29T04:07:12.639Z,101065.00
2022-10-29T04:09:39.180Z,101074.00
2022-10-29T04:12:06.130Z,101076.00
2022-10-29T04:14:32.882Z,101079.00
2022-10-29T04:16:59.431Z,101091.00
2022-10-29T04:19:25.937Z,101092.00
2022-10-29T04:32:45.273Z,101084.00
2022-10-29T04:35:11.765Z,101079.00
2022-10-29T04:37:38.278Z,101080.00
2022-10-29T04:40:05.469Z,101086.00
2022-10-29T04:42:38.995Z,101072.00
2022-10-29T04:45:06.780Z,101070.00
2022-10-29T04:47:33.624Z,101080.00
2022-10-29T04:50:00.059Z,101073.00
2022-10-29T04:52:26.958Z,101080.00
2022-10-29T04:54:53.392Z,101070.00
2022-10-29T04:57:19.863Z,101076.00
2022-10-29T04:59:46.316Z,101073.00
2022-10-29T05:02:12.977Z,101065.00
2022-10-29T05:04:39.471Z,101065.00
2022-10-29T05:07:06.062Z,101065.00
2022-10-29T05:09:32.601Z,101087.00
2022-10-29T05:11:59.172Z,101089.00
2022-10-29T05:14:25.657Z,101092.00
2022-10-29T05:16:52.163Z,101091.00
2022-10-29T05:19:18.763Z,101102.00
2022-10-29T05:21:45.282Z,101091.00
2022-10-29T05:24:11.757Z,101089.00
2022-10-29T05:26:38.383Z,101091.00
2022-10-29T05:29:05.225Z,101094.00
2022-10-29T05:31:31.964Z,101101.00
2022-10-29T05:33:58.743Z,101105.00
2022-10-29T05:36:25.228Z,101104.00
2022-10-29T05:38:51.840Z,101095.00
2022-10-29T05:41:18.416Z,101109.00
2022-10-29T05:43:48.519Z,101100.00
2022-10-29T05:46:14.975Z,101109.00
2022-10-29T05:48:41.597Z,101106.00
2022-10-29T05:51:08.053Z,101095.00
2022-10-29T05:53:34.678Z,101082.00
2022-10-29T05:56:01.207Z,101085.00
2022-10-29T05:58:27.667Z,101079.00
2022-10-29T06:00:54.281Z,101072.00
2022-10-29T06:03:22.482Z,101060.00
2022-10-29T06:05:50.211Z,101068.00
2022-10-29T06:08:17.178Z,101079.00
2022-10-29T06:10:43.692Z,101086.00
2022-10-29T06:13:12.030Z,101095.00
2022-10-29T06:15:38.524Z,101095.00
2022-10-29T06:18:05.117Z,101102.00
2022-10-29T06:20:32.012Z,101095.00
2022-10-29T06:22:59.360Z,101111.00
2022-10-29T06:25:26.991Z,101102.00
2022-10-29T06:28:18.292Z,101107.00
2022-10-29T06:30:51.846Z,101116.00
2022-10-29T06:33:23.062Z,101107.00
2022-10-29T06:35:53.327Z,101116.00
2022-10-29T06:38:20.303Z,101124.00
2022-10-29T06:40:53.664Z,101121.00
2022-10-29T06:43:29.837Z,101128.00
2022-10-29T06:45:57.176Z,101126.00
2022-10-29T06:48:24.879Z,101129.00
2022-10-29T06:50:52.603Z,101128.00
2022-10-29T06:53:20.474Z,101136.00
2022-10-29T06:56:03.087Z,101137.00
2022-10-29T06:58:29.629Z,101142.00
2022-10-29T07:03:28.308Z,101134.00
2022-10-29T07:05:56.466Z,101127.00
2022-10-29T07:08:23.216Z,101129.00
2022-10-29T07:10:54.635Z,101131.00
2022-10-29T07:13:21.495Z,101138.00
2022-10-29T07:15:48.203Z,101134.00
2022-10-29T07:18:16.400Z,101134.00
2022-10-29T07:20:45.406Z,101139.00
2022-10-29T07:23:14.774Z,101140.00
2022-10-29T07:25:42.519Z,101133.00
2022-10-29T07:28:19.029Z,101132.00
2022-10-29T07:30:50.369Z,101135.00
2022-10-29T07:33:17.787Z,101138.00
2022-10-29T07:35:45.465Z,101141.00
2022-10-29T07:38:12.781Z,101144.00
2022-10-29T07:40:40.546Z,101147.00
2022-10-29T07:43:07.509Z,101152.00
2022-10-29T07:45:34.124Z,101155.00
2022-10-29T07:48:07.248Z,101156.00
2022-10-29T07:50:33.928Z,101159.00
2022-10-29T07:53:01.205Z,101154.00
2022-10-29T07:55:31.004Z,101151.00
2022-10-29T07:58:02.390Z,101163.00
2022-10-29T08:00:30.288Z,101161.00
2022-10-29T08:02:57.528Z,101159.00
2022-10-29T08:05:25.277Z,101160.00
2022-10-29T08:07:55.457Z,101162.00
2022-10-29T08:10:23.299Z,101156.00
2022-10-29T08:13:02.200Z,101163.00
2022-10-29T08:15:30.823Z,101164.00
2022-10-29T08:17:57.629Z,101159.00
2022-10-29T08:20:26.292Z,101165.00
2022-10-29T08:22:59.313Z,101168.00
2022-10-29T08:25:26.353Z,101166.00
2022-10-29T08:28:00.859Z,101165.00
2022-10-29T08:30:27.855Z,101167.00
2022-10-29T08:32:54.788Z,101173.00
2022-10-29T08:35:21.468Z,101163.00
2022-10-29T08:37:48.254Z,101173.00
2022-10-29T08:40:25.715Z,101167.00
2022-10-29T08:43:08.760Z,101169.00
2022-10-29T08:45:48.027Z,101163.00
2022-10-29T08:48:33.661Z,101167.00
2022-10-29T08:51:13.421Z,101174.00
2022-10-29T08:53:54.368Z,101174.00
2022-10-29T08:56:35.139Z,101169.00
2022-10-29T08:59:18.229Z,101167.00
2022-10-29T09:01:45.130Z,101173.00
2022-10-29T09:04:35.321Z,101172.00
2022-10-29T09:07:14.388Z,101178.00
2022-10-29T09:10:02.105Z,101178.00
2022-10-29T09:12:39.626Z,101187.00
2022-10-29T09:15:25.852Z,101184.00
2022-10-29T09:18:13.174Z,101176.00
2022-10-29T09:20:45.769Z,101178.00
2022-10-29T09:23:42.756Z,101174.00
2022-10-29T09:26:22.846Z,101170.00
2022-10-29T09:29:34.405Z,101174.00
2022-10-29T09:32:03.635Z,101179.00
2022-10-29T09:34:49.524Z,101184.00
2022-10-29T09:37:49.154Z,101187.00
2022-10-29T09:40:17.818Z,101186.00
2022-10-29T09:42:46.946Z,101189.00
2022-10-29T09:45:16.385Z,101180.00
2022-10-29T09:47:45.711Z,101188.00
2022-10-29T09:50:36.074Z,101195.00
2022-10-29T09:53:02.614Z,101187.00
2022-10-29T09:55:40.242Z,101176.00
2022-10-29T09:58:07.277Z,101180.00
2022-10-29T10:00:34.963Z,101171.00
2022-10-29T10:03:10.213Z,101173.00
2022-10-29T10:05:56.605Z,101172.00
2022-10-29T10:08:23.111Z,101161.00
2022-10-29T10:10:52.396Z,101162.00
2022-10-29T10:13:26.980Z,101154.00
2022-10-29T10:15:56.566Z,101154.00
2022-10-29T10:18:39.193Z,101159.00
2022-10-29T10:21:14.073Z,101152.00
2022-10-29T10:23:47.638Z,101154.00
2022-10-29T10:26:26.434Z,101148.00
2022-10-29T10:29:13.077Z,101152.00
2022-10-29T10:31:40.936Z,101152.00
2022-10-29T10:34:16.780Z,101145.00
2022-10-29T10:36:46.143Z,101144.00
2022-10-29T10:39:39.705Z,101145.00
2022-10-29T10:42:16.288Z,101142.00
2022-10-29T10:45:00.234Z,101129.00
2022-10-29T10:47:29.496Z,101131.00
2022-10-29T10:50:15.825Z,101128.00
2022-10-29T10:52:42.455Z,101129.00
2022-10-29T10:55:24.168Z,101131.00
2022-10-29T10:58:22.660Z,101138.00
2022-10-29T11:01:02.781Z,101137.00
2022-10-29T11:03:34.053Z,101140.00
2022-10-29T11:06:22.382Z,101137.00
2022-10-29T11:09:19.963Z,101140.00
2022-10-29T11:11:49.574Z,101138.00
2022-10-29T11:14:26.654Z,101144.00
2022-10-29T11:16:56.043Z,101148.00
2022-10-29T11:19:48.084Z,101138.00
2022-10-29T11:22:45.330Z,101136.00
2022-10-29T11:25:21.659Z,101120.00
2022-10-29T11:28:06.880Z,101117.00
2022-10-29T11:30:39.058Z,101107.00
2022-10-29T11:33:16.796Z,101103.00
2022-10-29T11:35:56.065Z,101104.00
2022-10-29T11:38:33.389Z,101106.00
2022-10-29T11:41:07.222Z,101089.00
2022-10-29T11:43:33.806Z,101093.00
2022-10-29T11:46:25.074Z,101088.00
2022-10-29T11:48:54.766Z,101092.00
2022-10-29T11:51:46.140Z,101099.00
2022-10-29T11:54:40.284Z,101091.00
2022-10-29T11:57:16.645Z,101089.00
2022-10-29T12:00:07.907Z,101086.00
2022-10-29T12:03:18.184Z,101082.00
2022-10-29T12:06:04.574Z,101081.00
2022-10-29T12:08:59.262Z,101078.00
2022-10-29T12:11:50.485Z,101066.00
2022-10-29T12:14:33.243Z,101065.00
2022-10-29T12:17:09.185Z,101064.00
2022-10-29T12:19:54.644Z,101059.00
2022-10-29T12:22:45.360Z,101048.00
2022-10-29T12:25:27.079Z,101050.00
2022-10-29T12:28:08.091Z,101048.00
2022-10-29T12:30:39.814Z,101043.00
2022-10-29T12:33:15.167Z,101045.00
2022-10-29T12:35:49.512Z,101047.00
2022-10-29T12:38:39.196Z,101051.00
2022-10-29T12:41:10.022Z,101054.00
2022-10-29T12:43:39.033Z,101055.00
2022-10-29T12:46:20.042Z,101055.00
2022-10-29T12:48:53.253Z,101051.00
2022-10-29T12:51:41.902Z,101051.00
2022-10-29T12:54:18.986Z,101048.00
2022-10-29T12:56:47.913Z,101050.00
2022-10-29T12:59:32.091Z,101045.00
2022-10-29T13:02:17.356Z,101028.00
2022-10-29T13:05:11.584Z,101029.00
2022-10-29T13:07:46.948Z,101025.00
2022-10-29T13:10:22.714Z,101013.00
2022-10-29T13:12:55.335Z,101011.00
2022-10-29T13:15:23.154Z,101004.00
2022-10-29T13:17:51.574Z,101002.00
2022-10-29T13:20:25.282Z,101004.00
2022-10-29T13:22:55.083Z,100997.00
2022-10-29T13:25:37.121Z,100994.00
2022-10-29T13:28:12.701Z,100998.00
2022-10-29T13:30:41.013Z,100999.00
2022-10-29T13:33:26.296Z,100995.00
2022-10-29T13:35:56.701Z,100993.00
2022-10-29T13:39:07.492Z,101002.00
2022-10-29T13:41:43.388Z,100996.00
2022-10-29T13:44:23.162Z,101002.00
2022-10-29T13:47:00.992Z,101000.00
2022-10-29T13:49:44.893Z,101001.00
2022-10-29T13:52:15.617Z,101002.00
2022-10-29T13:54:47.179Z,101008.00
2022-10-29T13:57:15.605Z,100996.00
2022-10-29T13:59:46.791Z,100993.00
2022-10-29T14:02:30.555Z,100988.00
2022-10-29T14:05:13.121Z,100992.00
2022-10-29T14:08:13.727Z,100985.00
2022-10-29T14:10:40.257Z,100978.00
2022-10-29T14:13:26.245Z,100986.00
2022-10-29T14:16:00.431Z,100978.00
2022-10-29T14:18:27.787Z,100992.00
2022-10-29T14:20:59.393Z,100990.00
2022-10-29T14:23:26.679Z,100988.00
2022-10-29T14:25:56.173Z,100987.00
2022-10-29T14:28:32.319Z,100983.00
2022-10-29T14:31:06.594Z,100985.00
2022-10-29T14:33:35.530Z,100983.00
2022-10-29T14:36:08.208Z,100976.00
2022-10-29T14:38:44.873Z,100987.00
2022-10-29T14:41:11.790Z,100987.00
2022-10-29T14:43:39.112Z,100991.00
2022-10-29T14:46:17.112Z,100990.00
2022-10-29T14:48:54.933Z,100991.00
2022-10-29T14:51:22.261Z,100989.00
2022-10-29T14:53:54.545Z,100990.00
2022-10-29T14:56:22.335Z,100985.00
2022-10-29T14:58:48.859Z,100987.00
2022-10-29T15:01:20.308Z,100982.00
2022-10-29T15:03:47.818Z,100989.00
2022-10-29T15:06:17.350Z,100988.00
2022-10-29T15:08:46.000Z,100989.00
2022-10-29T15:11:37.295Z,100993.00
2022-10-29T15:14:20.979Z,100989.00
2022-10-29T15:16:47.605Z,100986.00
2022-10-29T15:19:15.055Z,100981.00
2022-10-29T15:21:41.818Z,100985.00
2022-10-29T15:24:10.366Z,100976.00
2022-10-29T15:26:44.909Z,100969.00
2022-10-29T15:29:11.982Z,100977.00
2022-10-29T15:31:46.047Z,100976.00
2022-10-29T15:34:18.896Z,100969.00
2022-10-29T15:36:52.849Z,100965.00
2022-10-29T15:39:27.969Z,100972.00
2022-10-29T15:41:59.567Z,100970.00
2022-10-29T15:44:37.957Z,100959.00
2022-10-29T15:47:26.596Z,100962.00
2022-10-29T15:49:53.067Z,100965.00
2022-10-29T15:52:20.470Z,100971.00
2022-10-29T15:54:47.650Z,100968.00
2022-10-29T15:57:17.705Z,100968.00
2022-10-29T15:59:44.227Z,100962.00
2022-10-29T16:02:17.264Z,100963.00
2022-10-29T16:04:43.797Z,100956.00
2022-10-29T16:07:13.611Z,100974.00
2022-10-29T16:09:45.470Z,100981.00
2022-10-29T16:12:12.007Z,100992.00
2022-10-29T16:14:38.486Z,100994.00
2022-10-29T16:17:12.379Z,100994.00
2022-10-29T16:19:38.886Z,100991.00
2022-10-29T16:22:05.527Z,100998.00
2022-10-29T16:24:33.951Z,100994.00
2022-10-29T16:27:00.473Z,100997.00
2022-10-29T16:29:27.060Z,100992.00
2022-10-29T16:31:53.577Z,100984.00
2022-10-29T16:34:23.730Z,100973.00
2022-10-29T16:36:51.350Z,100969.00
2022-10-29T16:39:17.854Z,100979.00
2022-10-29T16:41:44.366Z,100967.00
2022-10-29T16:44:10.874Z,100968.00
2022-10-29T16:46:37.367Z,100979.00
2022-10-29T16:49:03.874Z,100984.00
2022-10-29T16:51:30.430Z,100984.00
2022-10-29T16:53:56.926Z,100981.00
2022-10-29T16:56:23.400Z,100973.00
2022-10-29T16:58:49.891Z,100965.00
2022-10-29T17:01:17.016Z,100959.00
2022-10-29T17:03:43.874Z,100974.00
2022-10-29T17:06:10.884Z,100971.00
2022-10-29T17:08:37.959Z,100984.00
2022-10-29T17:11:06.590Z,100977.00
2022-10-29T17:13:34.004Z,100974.00
2022-10-29T17:16:00.460Z,100967.00
2022-10-29T17:18:26.994Z,100963.00
2022-10-29T17:20:58.229Z,100961.00
2022-10-29T17:23:28.762Z,100975.00
2022-10-29T17:25:57.259Z,100967.00
2022-10-29T17:28:24.954Z,100969.00
2022-10-29T17:30:51.535Z,100978.00
2022-10-29T17:33:18.724Z,100975.00
2022-10-29T17:35:46.711Z,100984.00
2022-10-29T17:38:13.224Z,100984.00
2022-10-29T17:40:39.733Z,100986.00
2022-10-29T17:43:06.425Z,100987.00
2022-10-29T17:45:32.939Z,100990.00
2022-10-29T17:48:00.023Z,100988.00
2022-10-29T17:50:27.181Z,100991.00
2022-10-29T17:52:54.168Z,100982.00
2022-10-29T17:55:20.824Z,100987.00
2022-10-29T17:57:47.643Z,100983.00
2022-10-29T18:00:14.520Z,100984.00
2022-10-29T18:02:41.175Z,100992.00
2022-10-29T18:05:08.085Z,100986.00
2022-10-29T18:07:34.694Z,100984.00
2022-10-29T18:10:01.283Z,100983.00
2022-10-29T18:12:27.791Z,100989.00
2022-10-29T18:14:54.264Z,100985.00
2022-10-29T18:17:20.799Z,100980.00
2022-10-29T18:19:47.752Z,100980.00
2022-10-29T18:22:14.369Z,100974.00
2022-10-29T18:24:40.927Z,100981.00
2022-10-29T18:27:07.443Z,100983.00
2022-10-29T18:29:33.950Z,100980.00
2022-10-29T18:32:00.699Z,100965.00
2022-10-29T18:34:27.157Z,100951.00
2022-10-29T18:36:53.638Z,100955.00
2022-10-29T18:39:20.334Z,100961.00
2022-10-29T18:41:46.782Z,100960.00
2022-10-29T18:44:13.249Z,100964.00
2022-10-29T18:46:39.791Z,100966.00
2022-10-29T18:49:06.394Z,100964.00
2022-10-29T18:51:33.016Z,100978.00
2022-10-29T18:54:00.338Z,100966.00
2022-10-29T18:56:27.960Z,100964.00
2022-10-29T18:58:57.818Z,100966.00
2022-10-29T19:01:33.104Z,100962.00
2022-10-29T19:04:02.036Z,100971.00
2022-10-29T19:06:30.826Z,100976.00
2022-10-29T19:09:00.011Z,100974.00
2022-10-29T19:11:27.201Z,100970.00
2022-10-29T19:14:01.748Z,100958.00
2022-10-29T19:16:29.535Z,100961.00
2022-10-29T19:19:00.169Z,100957.00
2022-10-29T19:21:27.148Z,100959.00
2022-10-29T19:23:58.037Z,100962.00
2022-10-29T19:26:26.394Z,100952.00
2022-10-29T19:28:53.629Z,100938.00
2022-10-29T19:31:22.612Z,100944.00
2022-10-29T19:33:50.388Z,100947.00
2022-10-29T19:36:19.283Z,100942.00
2022-10-29T19:38:47.068Z,100937.00
2022-10-29T19:41:14.928Z,100931.00
2022-10-29T19:43:41.731Z,100937.00
2022-10-29T19:46:24.545Z,100937.00
2022-10-29T19:48:55.591Z,100929.00
2022-10-29T19:51:23.170Z,100935.00
2022-10-29T19:53:53.386Z,100940.00
2022-10-29T19:56:20.607Z,100942.00
2022-10-29T19:58:50.060Z,100941.00
2022-10-29T20:01:18.286Z,100935.00
2022-10-29T20:03:45.669Z,100933.00
2022-10-29T20:06:12.647Z,100924.00
2022-10-29T20:08:39.362Z,100924.00
2022-10-29T20:11:06.222Z,100925.00
2022-10-29T20:13:32.771Z,100949.00
2022-10-29T20:16:24.605Z,100946.00
2022-10-29T20:18:52.040Z,100941.00
2022-10-29T20:21:18.794Z,100943.00
2022-10-29T20:23:45.437Z,100948.00
2022-10-29T20:26:12.071Z,100952.00
2022-10-29T20:28:39.351Z,100951.00
2022-10-29T20:31:30.161Z,100955.00
2022-10-29T20:34:10.614Z,100944.00
2022-10-29T20:36:44.689Z,100946.00
2022-10-29T20:39:20.918Z,100951.00
2022-10-29T20:41:56.195Z,100960.00
2022-10-29T20:44:58.153Z,100952.00
2022-10-29T20:47:23.156Z,100952.00
2022-10-29T20:49:50.449Z,100943.00
2022-10-29T20:52:17.001Z,100944.00
2022-10-29T20:54:43.624Z,100951.00
2022-10-29T20:57:12.319Z,100950.00
2022-10-29T20:59:39.197Z,100959.00
2022-10-29T21:02:06.293Z,100958.00
2022-10-29T21:04:34.245Z,100957.00
2022-10-29T21:07:01.837Z,100954.00
2022-10-29T21:09:29.088Z,100957.00
2022-10-29T21:11:55.904Z,100951.00
2022-10-29T21:14:23.465Z,100945.00
2022-10-29T21:16:51.053Z,100954.00
2022-10-29T21:19:18.152Z,100950.00
2022-10-29T21:21:44.647Z,100951.00
2022-10-29T21:24:11.232Z,100947.00
2022-10-29T21:26:37.808Z,100950.00
2022-10-29T21:29:04.350Z,100943.00
2022-10-29T21:31:30.880Z,100939.00
2022-10-29T21:33:57.864Z,100940.00
2022-10-29T21:36:24.802Z,100946.00
2022-10-29T21:38:52.086Z,100939.00
2022-10-29T21:41:19.261Z,100940.00
2022-10-29T21:43:54.752Z,100940.00
2022-10-29T21:46:21.322Z,100933.00
2022-10-29T21:48:47.762Z,100937.00
2022-10-29T21:51:15.122Z,100946.00
2022-10-29T21:53:41.662Z,100938.00
2022-10-29T21:56:10.562Z,100938.00
2022-10-29T21:58:37.100Z,100938.00
2022-10-29T22:01:06.796Z,100946.00
2022-10-29T22:03:34.309Z,100942.00
2022-10-29T22:06:05.422Z,100932.00
2022-10-29T22:08:32.297Z,100942.00
2022-10-29T22:10:59.382Z,100937.00
2022-10-29T22:13:28.150Z,100932.00
2022-10-29T22:15:54.635Z,100933.00
2022-10-29T22:18:21.407Z,100926.00
2022-10-29T22:20:48.021Z,100915.00
2022-10-29T22:25:50.872Z,100911.00
2022-10-29T22:28:17.385Z,100913.00
2022-10-29T22:30:43.957Z,100916.00
2022-10-29T22:33:10.412Z,100913.00
2022-10-29T22:35:36.848Z,100908.00
2022-10-29T22:38:03.299Z,100903.00
2022-10-29T22:40:29.767Z,100902.00
2022-10-29T22:42:56.409Z,100898.00
2022-10-29T22:45:23.128Z,100903.00
2022-10-29T22:47:49.549Z,100913.00
2022-10-29T22:50:16.104Z,100919.00
2022-10-29T22:52:42.564Z,100915.00
2022-10-29T22:55:09.376Z,100925.00
2022-10-29T22:57:35.808Z,100921.00
2022-10-29T23:00:02.284Z,100926.00
2022-10-29T23:02:28.825Z,100913.00
2022-10-29T23:04:55.308Z,100914.00
2022-10-29T23:07:21.769Z,100920.00
2022-10-29T23:09:55.488Z,100926.00
2022-10-29T23:12:24.428Z,100921.00
2022-10-29T23:14:52.262Z,100920.00
2022-10-29T23:17:22.633Z,100917.00
2022-10-29T23:19:56.903Z,100920.00
2022-10-29T23:22:27.430Z,100919.00
2022-10-29T23:24:55.551Z,100924.00
2022-10-29T23:27:26.018Z,100931.00
2022-10-29T23:29:59.770Z,100934.00
2022-10-29T23:32:29.048Z,100924.00
2022-10-29T23:34:57.882Z,100920.00
2022-10-29T23:37:25.817Z,100924.00
2022-10-29T23:39:53.229Z,100917.00
2022-10-29T23:42:20.862Z,100910.00
2022-10-29T23:44:48.046Z,100912.00
2022-10-29T23:47:15.251Z,100917.00
2022-10-29T23:49:42.682Z,100913.00
2022-10-29T23:52:12.120Z,100908.00
2022-10-29T23:54:39.644Z,100914.00
2022-10-29T23:57:06.452Z,100912.00
2022-10-29T23:59:33.554Z,100915.00
